createdAt,value
2018-07-03T00:00:02.982Z,12.8
2018-07-03T00:15:02.347Z,12.6
2018-07-03T00:30:02.754Z,12.3
2018-07-03T00:45:03.113Z,12.2
2018-07-03T01:00:02.475Z,12.2
2018-07-03T01:15:02.767Z,12
2018-07-03T01:30:03.172Z,11.8
2018-07-03T01:45:02.492Z,11.6
2018-07-03T02:00:02.784Z,11.2
2018-07-03T02:15:03.110Z,11
2018-07-03T02:30:02.528Z,10.8
2018-07-03T02:45:02.892Z,10.8
2018-07-03T03:00:03.236Z,10.5
2018-07-03T03:15:02.674Z,10.6
2018-07-03T03:30:03.236Z,10.4
2018-07-03T03:45:02.584Z,10.4
2018-07-03T04:00:02.895Z,10.1
2018-07-03T04:15:03.236Z,10.2
2018-07-03T04:30:02.710Z,10.6
2018-07-03T04:45:03.035Z,10.6
2018-07-03T05:00:02.384Z,11.3
2018-07-03T05:15:02.663Z,12
2018-07-03T05:30:03.096Z,12.4
2018-07-03T05:45:02.399Z,12.8
2018-07-03T06:00:02.696Z,13.2
2018-07-03T06:15:02.964Z,13.8
2018-07-03T06:30:02.469Z,14
2018-07-03T06:45:03.109Z,14.6
2018-07-03T07:00:02.472Z,15.2
2018-07-03T07:15:02.817Z,15.8
2018-07-03T07:30:02.284Z,16.4
2018-07-03T07:45:02.568Z,17.6
2018-07-03T08:00:02.888Z,19.4
2018-07-03T08:15:03.228Z,21.3
2018-07-03T08:30:02.722Z,22.5
2018-07-03T08:45:03.228Z,23.6
2018-07-03T09:00:02.724Z,23.9
2018-07-03T09:15:03.130Z,25.1
2018-07-03T09:30:02.667Z,26.5
2018-07-03T09:45:03.005Z,27.1
2018-07-03T10:00:02.369Z,27.6
2018-07-03T10:15:02.672Z,26.3
2018-07-03T10:30:03.089Z,27
2018-07-03T10:45:02.519Z,28.2
2018-07-03T11:00:02.930Z,28.8
2018-07-03T11:15:03.287Z,28.4
2018-07-03T11:30:02.707Z,27.4
2018-07-03T11:45:03.284Z,27.4
2018-07-03T12:00:02.659Z,27.4
2018-07-03T12:15:03.106Z,27.2
2018-07-03T12:30:02.551Z,27.6
2018-07-03T12:45:02.855Z,27.9
2018-07-03T13:00:03.207Z,27.9
2018-07-03T13:15:02.563Z,28.4
2018-07-03T13:30:02.962Z,28.4
2018-07-03T13:45:02.395Z,27.9
2018-07-03T14:00:02.831Z,28.8
2018-07-03T14:15:03.292Z,28.8
2018-07-03T14:30:02.754Z,26.9
2018-07-03T14:45:03.097Z,27.3
2018-07-03T15:00:02.413Z,26.9
2018-07-03T15:15:02.706Z,26.9
2018-07-03T15:30:03.109Z,26.1
2018-07-03T15:45:02.457Z,25.8
2018-07-03T16:00:02.771Z,25.6
2018-07-03T16:15:03.089Z,25.4
2018-07-03T16:30:02.649Z,25.2
2018-07-03T16:45:03.074Z,25.5
2018-07-03T17:00:02.381Z,25
2018-07-03T17:15:02.710Z,24.8
2018-07-03T17:30:03.138Z,24.4
2018-07-03T17:45:02.472Z,24.3
2018-07-03T18:00:03.210Z,24
2018-07-03T18:15:02.709Z,23.6
2018-07-03T18:30:03.163Z,23.3
2018-07-03T18:45:02.513Z,22.9
2018-07-03T19:00:02.821Z,22.5
2018-07-03T19:15:03.214Z,21.4
2018-07-03T19:30:25.058Z,21
2018-07-03T19:45:02.495Z,20.2
2018-07-03T20:00:02.958Z,19.9
2018-07-03T20:15:02.294Z,19.2
2018-07-03T20:30:02.663Z,19.1
2018-07-03T20:45:02.979Z,18.8
2018-07-03T21:00:02.271Z,18.6
2018-07-03T21:15:02.590Z,18.3
2018-07-03T21:30:02.963Z,18.1
2018-07-03T21:45:02.267Z,17.8
2018-07-03T22:00:02.580Z,17.7
2018-07-03T22:15:02.860Z,17.4
2018-07-03T22:30:03.319Z,17.1
2018-07-03T22:45:02.755Z,17
2018-07-03T23:00:03.085Z,16.9
2018-07-03T23:15:02.402Z,16.8
2018-07-03T23:30:02.800Z,16.8
2018-07-03T23:45:03.089Z,16.6
